createdAt,value
2019-06-10T00:00:22.127Z,4.50
2019-06-10T00:02:50.850Z,2.87
2019-06-10T00:05:21.454Z,4.80
2019-06-10T00:07:51.626Z,4.07
2019-06-10T00:10:21.471Z,4.50
2019-06-10T00:12:51.419Z,4.10
2019-06-10T00:15:21.338Z,4.57
2019-06-10T00:18:01.192Z,4.57
2019-06-10T00:20:21.607Z,4.50
2019-06-10T00:22:51.491Z,4.93
2019-06-10T00:25:21.052Z,6.87
2019-06-10T00:27:51.153Z,3.53
2019-06-10T00:30:20.836Z,5.83
2019-06-10T00:32:51.574Z,4.70
2019-06-10T00:35:21.094Z,4.40
2019-06-10T00:37:51.210Z,5.80
2019-06-10T00:40:21.493Z,5.60
2019-06-10T00:42:50.722Z,5.17
2019-06-10T00:45:21.660Z,5.10
2019-06-10T00:48:04.465Z,6.90
2019-06-10T00:50:21.801Z,7.70
2019-06-10T00:52:51.725Z,7.50
2019-06-10T00:55:21.175Z,4.17
2019-06-10T00:57:50.958Z,6.40
2019-06-10T01:00:25.587Z,5.63
2019-06-10T01:02:51.782Z,4.27
2019-06-10T01:05:20.715Z,6.23
2019-06-10T01:07:50.857Z,4.63
2019-06-10T01:10:21.092Z,7.37
2019-06-10T01:12:51.300Z,4.43
2019-06-10T01:15:21.859Z,5.40
2019-06-10T01:17:51.108Z,5.70
2019-06-10T01:20:21.080Z,6.00
2019-06-10T01:22:51.648Z,4.23
2019-06-10T01:25:21.643Z,7.40
2019-06-10T01:27:51.517Z,4.57
2019-06-10T01:30:24.523Z,6.70
2019-06-10T01:32:50.717Z,4.47
2019-06-10T01:35:21.070Z,4.67
2019-06-10T01:37:51.878Z,4.97
2019-06-10T01:40:20.882Z,4.57
2019-06-10T01:42:50.646Z,3.70
2019-06-10T01:45:21.236Z,3.57
2019-06-10T01:47:51.101Z,4.13
2019-06-10T01:50:21.866Z,5.07
2019-06-10T01:52:51.617Z,7.63
2019-06-10T01:55:21.891Z,3.73
2019-06-10T01:57:51.834Z,4.73
2019-06-10T02:00:25.982Z,3.47
2019-06-10T02:02:53.106Z,4.47
2019-06-10T02:05:22.911Z,4.87
2019-06-10T02:07:51.725Z,6.07
2019-06-10T02:10:22.821Z,3.70
2019-06-10T02:12:50.911Z,3.07
2019-06-10T02:15:22.463Z,3.53
2019-06-10T02:17:51.013Z,6.27
2019-06-10T02:20:22.596Z,6.27
2019-06-10T02:22:51.535Z,4.83
2019-06-10T02:25:21.710Z,3.60
2019-06-10T02:27:50.868Z,4.17
2019-06-10T02:30:36.502Z,8.23
2019-06-10T02:32:52.341Z,3.50
2019-06-10T02:35:33.214Z,4.73
2019-06-10T02:37:53.720Z,6.07
2019-06-10T02:40:29.289Z,6.03
2019-06-10T02:42:53.949Z,7.13
2019-06-10T02:45:32.020Z,12.87
2019-06-10T02:47:53.450Z,8.13
2019-06-10T02:50:32.330Z,7.43
2019-06-10T02:52:55.338Z,9.43
2019-06-10T02:55:30.478Z,8.97
2019-06-10T02:57:54.012Z,6.67
2019-06-10T03:00:36.156Z,5.50
2019-06-10T03:02:53.135Z,6.00
2019-06-10T03:05:26.980Z,7.87
2019-06-10T03:07:53.312Z,5.10
2019-06-10T03:10:29.519Z,10.73
2019-06-10T03:12:52.801Z,8.57
2019-06-10T03:15:24.499Z,10.60
2019-06-10T03:17:52.181Z,9.43
2019-06-10T03:20:23.087Z,10.30
2019-06-10T03:22:52.488Z,9.33
2019-06-10T03:25:23.311Z,8.37
2019-06-10T03:27:52.529Z,6.90
2019-06-10T03:30:35.846Z,9.10
2019-06-10T03:32:55.350Z,9.03
2019-06-10T03:35:23.838Z,10.63
2019-06-10T03:37:52.756Z,10.53
2019-06-10T03:40:24.599Z,7.10
2019-06-10T03:42:52.042Z,9.93
2019-06-10T03:45:23.385Z,6.63
2019-06-10T03:47:52.744Z,5.50
2019-06-10T03:50:23.976Z,6.27
2019-06-10T03:52:52.470Z,8.37
2019-06-10T03:55:24.864Z,6.60
2019-06-10T03:57:52.616Z,6.33
2019-06-10T04:00:23.699Z,8.13
2019-06-10T04:02:53.224Z,7.17
2019-06-10T04:05:23.863Z,6.83
2019-06-10T04:07:52.670Z,8.43
2019-06-10T04:10:23.986Z,7.53
2019-06-10T04:12:52.344Z,9.57
2019-06-10T04:15:24.807Z,9.47
2019-06-10T04:17:53.076Z,9.30
2019-06-10T04:20:24.745Z,9.07
2019-06-10T04:22:52.293Z,7.93
2019-06-10T04:25:24.658Z,6.70
2019-06-10T04:27:52.423Z,5.93
2019-06-10T04:30:24.254Z,7.63
2019-06-10T04:32:52.937Z,8.47
2019-06-10T04:35:23.362Z,6.43
2019-06-10T04:37:52.083Z,5.97
2019-06-10T04:40:23.190Z,6.67
2019-06-10T04:42:52.511Z,7.77
2019-06-10T04:45:23.180Z,6.50
2019-06-10T04:47:52.461Z,5.87
2019-06-10T04:50:32.607Z,6.83
2019-06-10T04:52:52.880Z,10.20
2019-06-10T04:55:23.550Z,7.27
2019-06-10T04:57:52.197Z,6.83
2019-06-10T05:00:23.520Z,7.17
2019-06-10T05:02:52.236Z,8.90
2019-06-10T05:05:23.674Z,9.77
2019-06-10T05:07:52.040Z,8.27
2019-06-10T05:10:21.676Z,6.97
2019-06-10T05:12:52.565Z,7.20
2019-06-10T05:15:24.291Z,8.57
2019-06-10T05:17:52.702Z,7.37
2019-06-10T05:20:28.305Z,8.20
2019-06-10T05:22:52.818Z,6.80
2019-06-10T05:25:22.769Z,7.23
2019-06-10T05:27:52.248Z,9.10
2019-06-10T05:30:22.111Z,7.60
2019-06-10T05:32:52.384Z,7.63
2019-06-10T05:35:23.265Z,9.20
2019-06-10T05:37:52.757Z,7.20
2019-06-10T05:40:23.105Z,6.07
2019-06-10T05:42:52.873Z,8.73
2019-06-10T05:45:24.466Z,7.43
2019-06-10T05:47:53.074Z,9.23
2019-06-10T05:50:22.527Z,11.27
2019-06-10T05:52:52.197Z,7.43
2019-06-10T05:55:22.850Z,7.93
2019-06-10T05:57:53.146Z,7.27
2019-06-10T06:00:23.361Z,12.30
2019-06-10T06:02:52.290Z,7.90
2019-06-10T06:05:22.205Z,7.43
2019-06-10T06:08:04.085Z,8.63
2019-06-10T06:10:22.301Z,8.13
2019-06-10T06:12:52.645Z,10.93
2019-06-10T06:15:22.123Z,5.97
2019-06-10T06:18:04.019Z,7.90
2019-06-10T06:20:23.495Z,7.83
2019-06-10T06:22:52.394Z,9.37
2019-06-10T06:25:24.052Z,8.40
2019-06-10T06:27:52.488Z,5.80
2019-06-10T06:30:22.683Z,6.90
2019-06-10T06:32:53.260Z,11.10
2019-06-10T06:35:22.732Z,7.13
2019-06-10T06:37:53.946Z,9.57
2019-06-10T06:40:23.117Z,7.50
2019-06-10T06:42:52.557Z,6.50
2019-06-10T06:45:22.239Z,6.77
2019-06-10T06:47:52.802Z,6.77
2019-06-10T06:50:25.374Z,7.13
2019-06-10T06:53:18.831Z,6.30
2019-06-10T06:55:23.381Z,14.13
2019-06-10T06:57:52.839Z,9.50
2019-06-10T07:00:42.694Z,9.87
2019-06-10T07:02:54.974Z,9.47
2019-06-10T07:05:23.481Z,9.37
2019-06-10T07:07:52.783Z,8.83
2019-06-10T07:10:22.827Z,9.37
2019-06-10T07:12:52.712Z,7.27
2019-06-10T07:15:24.235Z,5.00
2019-06-10T07:17:52.797Z,6.60
2019-06-10T07:20:23.019Z,8.43
2019-06-10T07:22:53.340Z,6.57
2019-06-10T07:25:22.986Z,8.63
2019-06-10T07:27:52.712Z,8.07
2019-06-10T07:30:22.975Z,6.23
2019-06-10T07:32:52.813Z,5.47
2019-06-10T07:35:22.164Z,7.60
2019-06-10T07:37:52.342Z,7.70
2019-06-10T07:40:22.274Z,8.50
2019-06-10T07:42:52.932Z,7.13
2019-06-10T07:45:22.130Z,9.83
2019-06-10T07:47:52.288Z,8.13
2019-06-10T07:50:22.705Z,7.77
2019-06-10T07:52:52.925Z,8.60
2019-06-10T07:55:22.180Z,6.87
2019-06-10T07:57:52.928Z,9.23
2019-06-10T08:00:22.746Z,10.83
2019-06-10T08:02:52.987Z,5.70
2019-06-10T08:05:23.537Z,8.67
2019-06-10T08:07:54.582Z,5.90
2019-06-10T08:10:23.307Z,7.47
2019-06-10T08:12:52.438Z,8.17
2019-06-10T08:15:23.006Z,11.33
2019-06-10T08:17:53.071Z,5.93
2019-06-10T08:20:42.210Z,7.60
2019-06-10T08:23:09.907Z,10.27
2019-06-10T08:25:38.519Z,9.73
2019-06-10T08:28:07.012Z,6.87
2019-06-10T08:30:35.620Z,5.40
2019-06-10T08:33:04.701Z,11.23
2019-06-10T08:35:44.130Z,5.97
2019-06-10T08:38:03.452Z,7.17
2019-06-10T08:40:32.575Z,5.97
2019-06-10T08:43:04.048Z,7.97
2019-06-10T08:45:33.395Z,9.17
2019-06-10T08:48:02.692Z,5.90
2019-06-10T08:50:33.673Z,5.67
2019-06-10T08:53:13.722Z,9.37
2019-06-10T08:55:33.478Z,7.80
2019-06-10T08:58:03.008Z,7.00
2019-06-10T09:00:33.730Z,7.87
2019-06-10T09:03:04.108Z,8.57
2019-06-10T09:05:32.622Z,6.10
2019-06-10T09:08:02.879Z,10.53
2019-06-10T09:10:33.773Z,9.90
2019-06-10T09:13:02.771Z,7.17
2019-06-10T09:15:32.494Z,7.47
2019-06-10T09:18:02.646Z,7.70
2019-06-10T09:20:33.181Z,6.50
2019-06-10T09:23:18.257Z,7.50
2019-06-10T09:25:33.348Z,7.27
2019-06-10T09:28:02.485Z,7.53
2019-06-10T09:30:33.403Z,8.40
2019-06-10T09:33:04.169Z,7.60
2019-06-10T09:35:32.350Z,10.33
2019-06-10T09:38:03.512Z,9.63
2019-06-10T09:41:00.935Z,10.93
2019-06-10T09:43:24.361Z,8.87
2019-06-10T09:45:56.314Z,5.80
2019-06-10T09:48:24.290Z,7.40
2019-06-10T09:50:57.821Z,8.63
2019-06-10T09:53:32.748Z,7.93
2019-06-10T09:55:55.530Z,5.37
2019-06-10T09:58:24.248Z,5.53
2019-06-10T10:00:58.405Z,7.57
2019-06-10T10:03:27.460Z,7.60
2019-06-10T10:06:09.821Z,6.33
2019-06-10T10:08:28.907Z,7.53
2019-06-10T10:10:58.999Z,6.60
2019-06-10T10:13:27.768Z,9.87
2019-06-10T10:15:56.261Z,6.27
2019-06-10T10:18:24.808Z,6.77
2019-06-10T10:20:58.451Z,5.50
2019-06-10T10:23:23.516Z,9.07
2019-06-10T10:25:56.360Z,7.83
2019-06-10T10:28:25.439Z,5.93
2019-06-10T10:30:57.201Z,10.50
2019-06-10T10:33:25.382Z,8.20
2019-06-10T10:35:53.040Z,5.70
2019-06-10T10:38:23.061Z,8.90
2019-06-10T10:40:57.911Z,9.63
2019-06-10T10:43:28.416Z,6.10
2019-06-10T10:45:59.207Z,6.43
2019-06-10T10:48:22.684Z,6.97
2019-06-10T10:51:13.156Z,5.40
2019-06-10T10:53:40.878Z,7.83
2019-06-10T10:56:09.550Z,10.77
2019-06-10T10:58:38.069Z,8.97
2019-06-10T11:01:06.571Z,10.20
2019-06-10T11:03:35.038Z,7.27
2019-06-10T11:06:03.518Z,8.30
2019-06-10T11:08:33.295Z,12.43
2019-06-10T11:11:05.134Z,9.37
2019-06-10T11:13:36.484Z,8.50
2019-06-10T11:16:05.961Z,8.47
2019-06-10T11:18:34.603Z,11.73
2019-06-10T11:21:05.078Z,7.00
2019-06-10T11:23:34.454Z,7.60
2019-06-10T11:26:03.331Z,7.90
2019-06-10T11:28:32.312Z,8.10
2019-06-10T11:31:03.242Z,7.30
2019-06-10T11:33:32.863Z,8.93
2019-06-10T11:36:02.926Z,9.00
2019-06-10T11:38:34.043Z,6.80
2019-06-10T11:41:02.822Z,6.33
2019-06-10T11:43:33.145Z,9.10
2019-06-10T11:46:06.876Z,7.83
2019-06-10T11:48:32.820Z,7.20
2019-06-10T11:51:04.297Z,7.43
2019-06-10T11:53:34.162Z,8.47
2019-06-10T11:56:02.497Z,9.03
2019-06-10T11:58:33.354Z,8.20
2019-06-10T12:01:03.881Z,6.40
2019-06-10T12:03:31.483Z,7.40
2019-06-10T12:06:01.971Z,11.03
2019-06-10T12:08:32.716Z,10.13
2019-06-10T12:11:02.390Z,7.57
2019-06-10T12:13:33.859Z,9.87
2019-06-10T12:18:33.111Z,7.60
2019-06-10T12:21:03.682Z,8.57
2019-06-10T12:23:33.613Z,9.73
2019-06-10T12:26:04.852Z,6.90
2019-06-10T12:28:32.616Z,10.23
2019-06-10T12:31:06.439Z,8.73
2019-06-10T12:33:33.666Z,8.37
2019-06-10T12:36:06.143Z,7.10
2019-06-10T12:38:32.795Z,6.70
2019-06-10T12:41:07.913Z,8.00
2019-06-10T12:43:32.660Z,6.73
2019-06-10T12:46:02.032Z,6.37
2019-06-10T12:48:34.052Z,10.63
2019-06-10T12:51:07.633Z,8.53
2019-06-10T12:53:32.676Z,8.00
2019-06-10T12:56:07.301Z,5.53
2019-06-10T12:58:33.478Z,7.20
2019-06-10T13:01:05.387Z,8.67
2019-06-10T13:03:33.803Z,8.97
2019-06-10T13:06:07.350Z,7.53
2019-06-10T13:08:36.082Z,6.30
2019-06-10T13:11:04.791Z,7.80
2019-06-10T13:13:33.305Z,8.67
2019-06-10T13:16:06.739Z,9.80
2019-06-10T13:18:32.085Z,6.97
2019-06-10T13:21:06.361Z,8.53
2019-06-10T13:23:34.572Z,9.20
2019-06-10T13:26:04.285Z,8.83
2019-06-10T13:28:32.513Z,10.80
2019-06-10T13:31:04.412Z,9.33
2019-06-10T13:33:33.203Z,8.53
2019-06-10T13:36:04.738Z,9.27
2019-06-10T13:38:33.171Z,10.13
2019-06-10T13:41:02.885Z,8.27
2019-06-10T13:43:33.894Z,8.00
2019-06-10T13:46:03.216Z,7.20
2019-06-10T13:48:32.671Z,9.03
2019-06-10T13:51:04.738Z,8.33
2019-06-10T13:53:31.363Z,7.13
2019-06-10T13:56:24.206Z,9.37
2019-06-10T13:58:30.069Z,9.10
2019-06-10T14:00:59.830Z,10.07
2019-06-10T14:03:28.443Z,9.90
2019-06-10T14:06:01.254Z,8.93
2019-06-10T14:08:27.189Z,10.47
2019-06-10T14:10:55.678Z,9.93
2019-06-10T14:13:24.153Z,12.10
2019-06-10T14:15:54.089Z,10.03
2019-06-10T14:18:23.401Z,10.47
2019-06-10T14:20:53.120Z,10.17
2019-06-10T14:23:22.314Z,8.93
2019-06-10T14:25:52.560Z,9.93
2019-06-10T14:28:38.422Z,10.33
2019-06-10T14:30:53.760Z,8.93
2019-06-10T14:33:23.314Z,10.63
2019-06-10T14:35:53.397Z,9.47
2019-06-10T14:38:22.364Z,9.37
2019-06-10T14:40:52.498Z,8.97
2019-06-10T14:43:23.238Z,8.47
2019-06-10T14:45:53.432Z,12.13
2019-06-10T14:48:23.269Z,10.40
2019-06-10T14:50:52.367Z,9.07
2019-06-10T14:53:22.956Z,10.17
2019-06-10T14:55:53.309Z,9.07
2019-06-10T14:58:23.181Z,9.27
2019-06-10T15:00:54.281Z,10.73
2019-06-10T15:03:21.677Z,9.93
2019-06-10T15:05:52.658Z,11.87
2019-06-10T15:08:22.789Z,11.17
2019-06-10T15:10:52.776Z,9.67
2019-06-10T15:13:23.440Z,9.27
2019-06-10T15:15:53.206Z,10.30
2019-06-10T15:18:23.575Z,10.17
2019-06-10T15:20:53.527Z,10.57
2019-06-10T15:23:23.559Z,8.60
2019-06-10T15:25:56.032Z,10.93
2019-06-10T15:28:23.656Z,11.53
2019-06-10T15:31:13.494Z,9.77
2019-06-10T15:33:42.986Z,9.50
2019-06-10T15:36:13.095Z,9.27
2019-06-10T15:38:43.899Z,9.27
2019-06-10T15:41:15.020Z,10.17
2019-06-10T15:43:42.469Z,11.33
2019-06-10T15:46:12.941Z,10.70
2019-06-10T15:51:28.730Z,9.47
2019-06-10T15:53:57.220Z,13.33
2019-06-10T15:56:38.726Z,10.60
2019-06-10T15:58:55.952Z,10.27
2019-06-10T16:01:27.041Z,10.43
2019-06-10T16:03:54.788Z,11.43
2019-06-10T16:06:24.369Z,9.80
2019-06-10T16:08:53.122Z,10.53
2019-06-10T16:11:26.364Z,11.03
2019-06-10T16:13:53.370Z,9.03
2019-06-10T16:16:23.062Z,9.70
2019-06-10T16:18:52.813Z,11.13
2019-06-10T16:21:23.699Z,9.57
2019-06-10T16:23:53.389Z,10.40
2019-06-10T16:26:26.301Z,9.80
2019-06-10T16:28:53.388Z,10.00
2019-06-10T16:31:25.547Z,8.83
2019-06-10T16:33:52.716Z,11.73
2019-06-10T16:36:24.408Z,10.73
2019-06-10T16:38:52.802Z,10.93
2019-06-10T16:41:26.052Z,12.23
2019-06-10T16:43:52.574Z,10.50
2019-06-10T16:46:22.344Z,9.80
2019-06-10T16:48:52.751Z,8.63
2019-06-10T16:51:21.612Z,10.30
2019-06-10T16:53:50.189Z,12.50
2019-06-10T16:56:19.684Z,10.83
2019-06-10T16:58:48.132Z,9.00
2019-06-10T17:01:18.207Z,10.00
2019-06-10T17:03:46.999Z,10.00
2019-06-10T17:06:15.616Z,9.60
2019-06-10T17:08:44.077Z,12.13
2019-06-10T17:11:12.645Z,12.57
2019-06-10T17:13:42.291Z,9.93
2019-06-10T17:16:12.777Z,9.90
2019-06-10T17:18:41.487Z,8.87
2019-06-10T17:21:09.992Z,9.13
2019-06-10T17:23:38.449Z,8.80
2019-06-10T17:26:06.965Z,11.17
2019-06-10T17:28:36.773Z,9.17
2019-06-10T17:31:05.575Z,9.10
2019-06-10T17:33:35.631Z,8.93
2019-06-10T17:36:04.347Z,9.80
2019-06-10T17:38:33.150Z,9.73
2019-06-10T17:41:02.920Z,9.77
2019-06-10T17:43:34.004Z,11.00
2019-06-10T17:46:03.364Z,9.67
2019-06-10T17:48:33.772Z,12.27
2019-06-10T17:51:02.366Z,9.03
2019-06-10T17:53:33.357Z,9.10
2019-06-10T17:56:03.213Z,8.87
2019-06-10T17:58:43.366Z,11.93
2019-06-10T18:01:02.251Z,11.53
2019-06-10T18:03:31.331Z,10.60
2019-06-10T18:06:02.593Z,8.97
2019-06-10T18:08:30.189Z,12.23
2019-06-10T18:10:58.674Z,9.50
2019-06-10T18:13:28.068Z,9.57
2019-06-10T18:15:56.600Z,11.43
2019-06-10T18:18:26.319Z,12.17
2019-06-10T18:20:54.930Z,12.50
2019-06-10T18:23:24.864Z,12.43
2019-06-10T18:25:53.475Z,11.10
2019-06-10T18:28:22.749Z,9.97
2019-06-10T18:30:53.305Z,11.27
2019-06-10T18:33:23.045Z,9.17
2019-06-10T18:35:53.219Z,11.47
2019-06-10T18:38:22.130Z,11.50
2019-06-10T18:40:53.372Z,16.80
2019-06-10T18:43:22.890Z,10.30
2019-06-10T18:45:53.190Z,10.53
2019-06-10T18:48:23.105Z,10.60
2019-06-10T18:50:53.250Z,12.47
2019-06-10T18:53:23.390Z,11.13
2019-06-10T18:55:54.773Z,10.10
2019-06-10T18:58:22.803Z,11.27
2019-06-10T19:01:00.707Z,11.37
2019-06-10T19:03:23.425Z,12.20
2019-06-10T19:05:52.854Z,9.83
2019-06-10T19:08:22.326Z,9.70
2019-06-10T19:10:53.687Z,12.67
2019-06-10T19:13:22.478Z,11.87
2019-06-10T19:15:53.153Z,10.50
2019-06-10T19:18:23.375Z,11.57
2019-06-10T19:20:52.956Z,11.37
2019-06-10T19:23:22.679Z,12.43
2019-06-10T19:25:52.546Z,11.40
2019-06-10T19:28:22.932Z,11.47
2019-06-10T19:30:53.425Z,11.73
2019-06-10T19:33:23.853Z,10.43
2019-06-10T19:35:53.207Z,12.23
2019-06-10T19:38:23.134Z,12.97
2019-06-10T19:40:52.460Z,9.93
2019-06-10T19:43:21.134Z,12.13
2019-06-10T19:45:49.690Z,12.90
2019-06-10T19:48:18.193Z,10.43
2019-06-10T19:50:50.166Z,10.97
2019-06-10T19:53:17.378Z,11.80
2019-06-10T19:55:46.135Z,12.30
2019-06-10T19:58:14.907Z,12.47
2019-06-10T20:00:50.724Z,9.60
2019-06-10T20:03:13.762Z,10.73
2019-06-10T20:05:44.921Z,9.50
2019-06-10T20:08:12.447Z,11.10
2019-06-10T20:10:42.293Z,16.13
2019-06-10T20:13:10.938Z,11.03
2019-06-10T20:15:39.546Z,13.47
2019-06-10T20:18:08.044Z,12.70
2019-06-10T20:20:38.201Z,14.83
2019-06-10T20:23:08.855Z,11.20
2019-06-10T20:25:38.356Z,11.43
2019-06-10T20:28:06.945Z,11.50
2019-06-10T20:30:37.000Z,14.97
2019-06-10T20:33:05.711Z,11.37
2019-06-10T20:35:34.200Z,11.77
2019-06-10T20:38:05.091Z,12.47
2019-06-10T20:40:35.497Z,12.90
2019-06-10T20:43:03.388Z,12.17
2019-06-10T20:45:33.167Z,13.73
2019-06-10T20:48:02.761Z,12.93
2019-06-10T20:50:32.565Z,13.50
2019-06-10T20:53:11.871Z,13.50
2019-06-10T20:55:40.685Z,16.03
2019-06-10T20:58:06.932Z,13.63
2019-06-10T21:00:40.574Z,12.93
2019-06-10T21:03:07.895Z,13.97
2019-06-10T21:05:36.677Z,14.97
2019-06-10T21:08:05.925Z,15.40
2019-06-10T21:10:36.476Z,13.63
2019-06-10T21:13:08.179Z,13.40
2019-06-10T21:15:37.435Z,14.87
2019-06-10T21:18:06.300Z,16.60
2019-06-10T21:20:34.848Z,14.00
2019-06-10T21:23:03.498Z,15.00
2019-06-10T21:25:32.643Z,14.93
2019-06-10T21:28:03.326Z,14.13
2019-06-10T21:30:41.329Z,15.83
2019-06-10T21:33:03.506Z,13.30
2019-06-10T21:35:34.276Z,15.23
2019-06-10T21:38:03.137Z,13.60
2019-06-10T21:40:33.015Z,15.57
2019-06-10T21:43:02.997Z,14.43
2019-06-10T21:45:32.542Z,18.07
2019-06-10T21:48:02.321Z,14.57
2019-06-10T21:50:33.355Z,14.80
2019-06-10T21:53:02.944Z,15.70
2019-06-10T21:55:33.187Z,16.30
2019-06-10T21:58:03.676Z,14.50
2019-06-10T22:00:52.035Z,14.93
2019-06-10T22:03:07.118Z,17.07
2019-06-10T22:05:35.576Z,18.30
2019-06-10T22:08:04.068Z,16.57
2019-06-10T22:10:33.611Z,14.10
2019-06-10T22:13:03.143Z,17.23
2019-06-10T22:15:33.388Z,17.00
2019-06-10T22:18:02.366Z,18.60
2019-06-10T22:20:32.421Z,16.27
2019-06-10T22:23:02.571Z,20.97
2019-06-10T22:25:32.833Z,17.13
2019-06-10T22:28:02.782Z,16.90
2019-06-10T22:30:32.214Z,20.20
2019-06-10T22:33:03.134Z,18.20
2019-06-10T22:35:31.156Z,22.27
2019-06-10T22:37:59.633Z,22.20
2019-06-10T22:40:28.198Z,19.67
2019-06-10T22:42:56.876Z,18.97
2019-06-10T22:45:25.623Z,19.33
2019-06-10T22:47:55.403Z,18.23
2019-06-10T22:50:24.328Z,17.37
2019-06-10T22:52:55.603Z,18.20
2019-06-10T22:55:23.030Z,19.83
2019-06-10T22:57:54.696Z,17.60
2019-06-10T23:00:22.980Z,19.60
2019-06-10T23:02:54.612Z,21.87
2019-06-10T23:05:23.314Z,20.27
2019-06-10T23:07:53.235Z,20.37
2019-06-10T23:10:22.899Z,21.87
2019-06-10T23:12:54.737Z,21.17
2019-06-10T23:15:23.475Z,19.83
2019-06-10T23:17:55.084Z,20.73
2019-06-10T23:20:22.370Z,23.67
2019-06-10T23:22:54.395Z,21.00
2019-06-10T23:25:22.146Z,21.47
2019-06-10T23:27:54.196Z,22.93
2019-06-10T23:30:22.447Z,31.27
2019-06-10T23:32:54.426Z,19.43
2019-06-10T23:35:23.019Z,17.73
2019-06-10T23:37:54.829Z,18.47
2019-06-10T23:40:23.350Z,18.00
2019-06-10T23:42:53.143Z,17.30
2019-06-10T23:45:22.352Z,19.13
2019-06-10T23:47:52.959Z,18.33
2019-06-10T23:50:22.595Z,18.53
2019-06-10T23:52:54.092Z,19.30
2019-06-10T23:55:22.736Z,18.40
2019-06-10T23:57:53.032Z,17.97
